Time;durP1;ratioP1;P1;durP2;ratioP2;P2;SDS_P1;SDS_P2;PMS_P1;PMS_P2;Temp;Humidity;BMP_temperature;BMP_pressure;BME280_temperature;BME280_humidity;BME280_pressure;Samples;Min_cycle;Max_cycle;Signal;HPM_P1;HPM_P2
2021/03/30 00:00:12;;;;;;;11.00;9.80;;;10.70;99.90;;;;;;6138516;23;20802;-76
2021/03/30 00:02:39;;;;;;;12.67;9.90;;;10.60;99.90;;;;;;6102655;23;20424;-76
2021/03/30 00:05:08;;;;;;;12.10;9.90;;;10.60;99.90;;;;;;6138521;23;20397;-76
2021/03/30 00:07:35;;;;;;;16.23;10.37;;;10.60;99.90;;;;;;6127225;23;20499;-76
2021/03/30 00:10:06;;;;;;;13.20;10.70;;;10.50;99.90;;;;;;6101946;23;20520;-76
2021/03/30 00:12:37;;;;;;;15.83;9.87;;;10.50;99.90;;;;;;6101867;23;20416;-77
2021/03/30 00:15:08;;;;;;;12.40;10.37;;;10.40;99.90;;;;;;6101922;23;20413;-76
2021/03/30 00:17:36;;;;;;;11.57;9.40;;;10.40;99.90;;;;;;6101672;23;20410;-76
2021/03/30 00:20:09;;;;;;;11.60;9.73;;;10.40;99.90;;;;;;6137481;23;20421;-76
2021/03/30 00:22:36;;;;;;;16.90;10.53;;;10.30;99.90;;;;;;6137211;23;20396;-76
2021/03/30 00:25:06;;;;;;;13.87;9.80;;;10.30;99.90;;;;;;6109857;23;20421;-77
2021/03/30 00:27:33;;;;;;;13.83;9.77;;;10.30;99.90;;;;;;6125730;23;20421;-76
2021/03/30 00:30:09;;;;;;;11.50;9.30;;;10.20;99.90;;;;;;6137189;23;20463;-76
2021/03/30 00:32:39;;;;;;;11.83;9.03;;;10.20;99.90;;;;;;6137113;23;20460;-76
2021/03/30 00:35:08;;;;;;;17.23;10.57;;;10.20;99.90;;;;;;6137320;23;20429;-76
2021/03/30 00:37:36;;;;;;;12.17;10.60;;;10.10;99.90;;;;;;6137622;23;20807;-76
2021/03/30 00:40:08;;;;;;;13.03;10.40;;;10.10;99.90;;;;;;6137099;23;20459;-76
2021/03/30 00:42:35;;;;;;;12.40;10.30;;;10.10;99.90;;;;;;6137161;23;20406;-76
2021/03/30 00:45:04;;;;;;;16.30;10.03;;;10.00;99.90;;;;;;6137217;23;20421;-76
2021/03/30 00:47:34;;;;;;;13.40;10.20;;;10.00;99.90;;;;;;6125571;23;20421;-76
2021/03/30 00:50:07;;;;;;;15.23;11.17;;;10.00;99.90;;;;;;6125669;23;20813;-76
2021/03/30 00:52:37;;;;;;;13.57;10.33;;;9.90;99.90;;;;;;6126292;23;20421;-76
2021/03/30 00:55:16;;;;;;;11.90;10.60;;;9.90;99.90;;;;;;6136983;23;20393;-76
2021/03/30 00:57:47;;;;;;;13.27;11.27;;;9.90;99.90;;;;;;6125699;23;20416;-76
2021/03/30 01:00:16;;;;;;;14.30;9.77;;;9.80;99.90;;;;;;6137089;23;20401;-76
2021/03/30 01:02:44;;;;;;;13.27;10.87;;;9.90;99.90;;;;;;6125202;23;20803;-77
2021/03/30 01:05:13;;;;;;;12.07;10.07;;;9.80;99.90;;;;;;6136777;23;20453;-77
2021/03/30 01:07:56;;;;;;;14.23;9.60;;;9.80;99.90;;;;;;6136744;23;20904;-77
2021/03/30 01:10:34;;;;;;;12.30;9.40;;;9.80;99.90;;;;;;6150000;23;20560;-76
2021/03/30 01:13:14;;;;;;;13.93;10.60;;;9.70;99.90;;;;;;6136032;23;20427;-76
2021/03/30 01:15:48;;;;;;;13.73;10.80;;;9.80;99.90;;;;;;6125546;23;20177;-76
2021/03/30 01:18:25;;;;;;;13.30;9.10;;;9.70;99.90;;;;;;6136824;23;20418;-76
2021/03/30 01:21:38;;;;;;;17.20;10.53;;;9.70;99.90;;;;;;6137213;23;20439;-76
2021/03/30 01:24:13;;;;;;;15.02;10.27;;;9.70;99.90;;;;;;6012802;23;20475;-76
2021/03/30 01:26:49;;;;;;;12.93;9.93;;;9.80;99.90;;;;;;6048144;23;20163;-76
2021/03/30 01:29:45;;;;;;;11.77;9.90;;;9.70;99.90;;;;;;6106311;23;20452;-76
2021/03/30 01:32:25;;;;;;;11.07;9.97;;;9.70;99.90;;;;;;6125810;23;20468;-77
2021/03/30 01:34:55;;;;;;;12.20;9.67;;;9.60;99.90;;;;;;6125732;23;20398;-77
2021/03/30 01:37:24;;;;;;;10.70;9.60;;;9.50;99.90;;;;;;6125775;23;20504;-77
2021/03/30 01:39:54;;;;;;;11.57;10.30;;;9.50;99.90;;;;;;6125535;23;20465;-77
2021/03/30 01:42:24;;;;;;;12.23;10.67;;;9.40;99.90;;;;;;6150468;23;20405;-77
2021/03/30 01:44:54;;;;;;;12.77;10.70;;;9.40;99.90;;;;;;6126131;23;20449;-76
2021/03/30 01:47:22;;;;;;;12.70;10.60;;;9.40;99.90;;;;;;6125790;23;20477;-77
2021/03/30 01:49:52;;;;;;;12.80;10.97;;;9.40;99.90;;;;;;6137245;23;20437;-76
2021/03/30 01:52:20;;;;;;;15.47;11.87;;;9.30;99.90;;;;;;6137020;23;20398;-77
2021/03/30 01:54:49;;;;;;;13.90;10.80;;;9.30;99.90;;;;;;6125097;23;20488;-77
2021/03/30 01:57:20;;;;;;;12.10;10.33;;;9.30;99.90;;;;;;6137075;23;20397;-77
2021/03/30 01:59:51;;;;;;;13.57;11.63;;;9.20;99.90;;;;;;6137412;23;20421;-76
2021/03/30 02:02:20;;;;;;;15.87;12.77;;;9.20;99.90;;;;;;6125213;23;20417;-76
2021/03/30 02:04:50;;;;;;;15.20;12.37;;;9.20;99.90;;;;;;6136299;23;20874;-77
2021/03/30 02:07:23;;;;;;;14.60;11.77;;;9.20;99.90;;;;;;6124667;23;20402;-76
2021/03/30 02:09:53;;;;;;;15.00;13.50;;;9.20;99.90;;;;;;6124788;23;20484;-76
2021/03/30 02:12:23;;;;;;;18.97;13.37;;;9.10;99.90;;;;;;6136398;23;20378;-76
2021/03/30 02:14:51;;;;;;;15.13;13.53;;;9.10;99.90;;;;;;6124914;23;20468;-76
2021/03/30 02:17:28;;;;;;;15.73;14.03;;;9.10;99.90;;;;;;6125006;23;20500;-76
2021/03/30 02:20:03;;;;;;;18.07;13.50;;;9.00;99.90;;;;;;6124850;23;20496;-76
2021/03/30 02:22:35;;;;;;;14.97;12.80;;;9.00;99.90;;;;;;6124851;23;20413;-76
2021/03/30 02:25:06;;;;;;;13.37;11.97;;;9.00;99.90;;;;;;6128316;23;20417;-77
2021/03/30 02:27:38;;;;;;;14.50;12.23;;;8.90;99.90;;;;;;6127506;23;20413;-77
2021/03/30 02:30:10;;;;;;;14.10;12.70;;;8.90;99.90;;;;;;6100741;23;20987;-77
2021/03/30 02:32:39;;;;;;;15.83;11.60;;;8.90;99.90;;;;;;6136898;23;20733;-77
2021/03/30 02:35:08;;;;;;;14.87;13.27;;;8.80;99.90;;;;;;6101191;23;20401;-77
2021/03/30 02:37:37;;;;;;;14.00;12.50;;;8.80;99.90;;;;;;6101401;23;20473;-77
2021/03/30 02:40:08;;;;;;;13.10;11.00;;;8.80;99.90;;;;;;6136270;23;20189;-76
2021/03/30 02:42:37;;;;;;;15.80;13.03;;;8.80;99.90;;;;;;6137316;23;20409;-77
2021/03/30 02:45:07;;;;;;;16.53;12.80;;;8.80;99.90;;;;;;6136843;23;20414;-76
2021/03/30 02:47:38;;;;;;;15.32;12.85;;;8.70;99.90;;;;;;6124864;23;20426;-77
2021/03/30 02:50:08;;;;;;;16.00;12.63;;;8.80;99.90;;;;;;6100955;23;20249;-77
2021/03/30 02:52:38;;;;;;;15.90;12.93;;;8.70;99.90;;;;;;6125289;23;20476;-77
2021/03/30 02:55:08;;;;;;;14.37;12.23;;;8.70;99.90;;;;;;6136717;23;20390;-77
2021/03/30 02:57:42;;;;;;;17.23;13.83;;;8.70;99.90;;;;;;6136667;23;20460;-77
2021/03/30 03:00:12;;;;;;;16.00;12.50;;;8.60;99.90;;;;;;6136362;23;20935;-77
2021/03/30 03:02:42;;;;;;;13.80;12.50;;;8.60;99.90;;;;;;6136099;23;20401;-77
2021/03/30 03:05:12;;;;;;;15.13;13.57;;;8.60;99.90;;;;;;6136261;23;20477;-77
2021/03/30 03:07:40;;;;;;;15.30;13.33;;;8.50;99.90;;;;;;6125107;23;20468;-77
2021/03/30 03:10:10;;;;;;;17.93;16.10;;;8.50;99.90;;;;;;6136109;23;20762;-77
2021/03/30 03:12:39;;;;;;;23.20;18.63;;;8.50;99.90;;;;;;6136224;23;20404;-77
2021/03/30 03:15:11;;;;;;;19.90;16.17;;;8.50;99.90;;;;;;6136573;23;20386;-76
2021/03/30 03:17:43;;;;;;;16.63;14.33;;;8.50;99.90;;;;;;6100567;23;20801;-76
2021/03/30 03:20:12;;;;;;;15.57;13.70;;;8.40;99.90;;;;;;6136265;23;20418;-77
2021/03/30 03:22:41;;;;;;;16.70;13.03;;;8.40;99.90;;;;;;6138091;23;20455;-77
2021/03/30 03:25:14;;;;;;;14.20;12.80;;;8.40;99.90;;;;;;6138194;23;20417;-77
2021/03/30 03:27:42;;;;;;;14.70;13.30;;;8.30;99.90;;;;;;6127070;23;20405;-77
2021/03/30 03:30:12;;;;;;;14.30;12.90;;;8.30;99.90;;;;;;6138685;23;20439;-77
2021/03/30 03:32:42;;;;;;;14.60;13.10;;;8.30;99.90;;;;;;6138523;23;20452;-77
2021/03/30 03:35:11;;;;;;;17.93;14.10;;;8.30;99.90;;;;;;6126888;23;20414;-77
2021/03/30 03:37:43;;;;;;;15.50;14.00;;;8.30;99.90;;;;;;6138326;23;20397;-77
2021/03/30 03:40:12;;;;;;;15.20;13.60;;;8.30;99.90;;;;;;6126785;23;20932;-77
2021/03/30 03:42:40;;;;;;;15.80;14.20;;;8.30;99.90;;;;;;6102114;23;20948;-76
2021/03/30 03:45:10;;;;;;;15.40;13.50;;;8.30;99.90;;;;;;6137970;23;20425;-77
2021/03/30 03:47:37;;;;;;;13.63;12.13;;;8.20;99.90;;;;;;6126603;23;20469;-77
2021/03/30 03:50:11;;;;;;;14.87;13.40;;;8.20;99.90;;;;;;6102108;23;20496;-77
2021/03/30 03:52:45;;;;;;;13.60;12.30;;;8.20;99.90;;;;;;6138230;23;20413;-77
2021/03/30 03:55:16;;;;;;;17.33;12.30;;;8.20;99.90;;;;;;6102195;23;20479;-77
2021/03/30 03:57:51;;;;;;;13.90;12.00;;;8.20;99.90;;;;;;6126818;23;20861;-77
2021/03/30 04:00:20;;;;;;;13.80;12.17;;;8.10;99.90;;;;;;6102621;23;20782;-77
2021/03/30 04:02:55;;;;;;;15.60;13.50;;;8.10;99.90;;;;;;6138960;23;20497;-79
2021/03/30 04:05:28;;;;;;;14.57;13.00;;;8.10;99.90;;;;;;6138018;23;20390;-77
2021/03/30 04:08:04;;;;;;;16.47;13.60;;;8.10;99.90;;;;;;6102124;23;20789;-77
2021/03/30 04:10:33;;;;;;;16.13;13.90;;;8.00;99.90;;;;;;6137933;23;20458;-77
2021/03/30 04:13:05;;;;;;;19.10;15.10;;;8.10;99.90;;;;;;6137991;23;20425;-77
2021/03/30 04:15:34;;;;;;;26.93;22.90;;;8.00;99.90;;;;;;6138294;23;20442;-77
2021/03/30 04:18:01;;;;;;;37.03;29.57;;;8.00;99.90;;;;;;6137985;23;20834;-77
2021/03/30 04:20:31;;;;;;;40.05;28.33;;;8.00;99.90;;;;;;6136391;23;20430;-77
2021/03/30 04:23:01;;;;;;;37.83;26.20;;;8.10;99.90;;;;;;6138409;23;20213;-77
2021/03/30 04:25:30;;;;;;;23.60;18.47;;;8.10;99.90;;;;;;6137794;23;20888;-77
2021/03/30 04:27:57;;;;;;;20.73;17.63;;;8.00;99.90;;;;;;6138478;23;20404;-77
2021/03/30 04:30:27;;;;;;;21.90;18.07;;;8.00;99.90;;;;;;6137982;23;20892;-77
2021/03/30 04:32:56;;;;;;;18.03;16.23;;;7.90;99.90;;;;;;6137901;23;20469;-77
2021/03/30 04:35:23;;;;;;;16.57;14.83;;;7.90;99.90;;;;;;6102563;23;20449;-77
2021/03/30 04:37:52;;;;;;;15.80;14.20;;;7.90;99.90;;;;;;6102457;23;20735;-78
2021/03/30 04:40:23;;;;;;;15.10;13.60;;;7.80;99.90;;;;;;6137804;23;20425;-77
2021/03/30 04:42:50;;;;;;;14.00;12.47;;;7.80;99.90;;;;;;6126776;23;20472;-77
2021/03/30 04:45:17;;;;;;;14.93;12.80;;;7.80;99.90;;;;;;6101735;23;20422;-76
2021/03/30 04:47:45;;;;;;;13.57;12.20;;;7.80;99.90;;;;;;6137493;23;20425;-77
2021/03/30 04:50:13;;;;;;;13.57;12.27;;;7.80;99.90;;;;;;6101731;23;20449;-77
2021/03/30 04:52:40;;;;;;;15.37;12.60;;;7.80;99.90;;;;;;6137878;23;20881;-77
2021/03/30 04:55:09;;;;;;;15.47;13.77;;;7.80;99.90;;;;;;6126566;23;20418;-77
2021/03/30 04:57:36;;;;;;;15.00;12.30;;;7.80;99.90;;;;;;6137739;23;20397;-77
2021/03/30 05:00:05;;;;;;;15.33;12.90;;;7.70;99.90;;;;;;6101958;23;20437;-77
2021/03/30 05:02:32;;;;;;;16.10;12.30;;;7.80;99.90;;;;;;6138095;23;20397;-77
2021/03/30 05:05:01;;;;;;;13.83;12.43;;;7.80;99.90;;;;;;6138406;23;20416;-78
2021/03/30 05:07:28;;;;;;;15.47;12.43;;;7.80;99.90;;;;;;6137673;23;20398;-78
2021/03/30 05:09:55;;;;;;;16.90;12.90;;;7.90;99.90;;;;;;6137287;23;20456;-77
2021/03/30 05:12:25;;;;;;;16.10;13.50;;;7.80;99.90;;;;;;6101812;23;20802;-77
2021/03/30 05:14:52;;;;;;;13.77;12.37;;;7.90;99.90;;;;;;6101585;23;20797;-77
2021/03/30 05:17:20;;;;;;;13.90;12.50;;;7.90;99.90;;;;;;6101780;23;20801;-77
2021/03/30 05:19:47;;;;;;;13.37;12.07;;;7.90;99.90;;;;;;6101393;23;20437;-77
2021/03/30 05:22:15;;;;;;;15.10;11.70;;;8.00;99.90;;;;;;6137549;23;20397;-77
2021/03/30 05:24:43;;;;;;;16.70;12.00;;;8.00;99.90;;;;;;6130638;23;20456;-77
2021/03/30 05:27:11;;;;;;;14.03;12.53;;;8.00;99.90;;;;;;6137288;23;20401;-77
2021/03/30 05:29:43;;;;;;;13.27;11.97;;;8.00;99.90;;;;;;6137282;23;20528;-77
2021/03/30 05:32:13;;;;;;;13.73;11.27;;;8.10;99.90;;;;;;6101614;23;20487;-77
2021/03/30 05:34:40;;;;;;;15.13;12.23;;;8.10;99.90;;;;;;6101637;23;20497;-77
2021/03/30 05:37:07;;;;;;;14.60;12.97;;;8.20;99.90;;;;;;6101496;23;20417;-77
2021/03/30 05:39:35;;;;;;;14.00;11.60;;;8.20;99.90;;;;;;6137207;23;20421;-77
2021/03/30 05:42:04;;;;;;;14.03;10.63;;;8.30;99.90;;;;;;6101301;23;20418;-77
2021/03/30 05:44:34;;;;;;;12.53;10.57;;;8.30;99.90;;;;;;6100828;23;20424;-77
2021/03/30 05:47:14;;;;;;;12.23;10.43;;;8.40;99.90;;;;;;6137155;23;20386;-77
2021/03/30 05:49:46;;;;;;;12.80;11.50;;;8.40;99.90;;;;;;6101007;23;20441;-77
2021/03/30 05:52:23;;;;;;;13.33;11.87;;;8.50;99.90;;;;;;6136776;23;20889;-77
2021/03/30 05:54:54;;;;;;;16.27;12.53;;;8.50;99.90;;;;;;6137271;23;20714;-77
2021/03/30 05:57:25;;;;;;;13.07;11.70;;;8.60;99.90;;;;;;6125526;23;20751;-77
2021/03/30 05:59:57;;;;;;;13.77;11.83;;;8.60;99.90;;;;;;6101060;23;20441;-77
2021/03/30 06:02:31;;;;;;;14.37;11.10;;;8.60;99.90;;;;;;6101192;23;20409;-77
2021/03/30 06:05:03;;;;;;;12.40;11.10;;;8.70;99.90;;;;;;6137019;23;20385;-77
2021/03/30 06:07:30;;;;;;;15.50;12.50;;;8.70;99.90;;;;;;6136915;23;20402;-77
2021/03/30 06:09:59;;;;;;;13.30;11.90;;;8.80;99.90;;;;;;6100739;23;20477;-77
2021/03/30 06:12:26;;;;;;;12.33;11.13;;;8.80;99.90;;;;;;6125426;23;20880;-77
2021/03/30 06:15:01;;;;;;;12.80;11.23;;;8.80;99.90;;;;;;6100961;23;20421;-77
2021/03/30 06:17:40;;;;;;;11.93;10.47;;;8.90;99.90;;;;;;6136777;23;20409;-77
2021/03/30 06:20:10;;;;;;;14.50;10.63;;;9.00;99.90;;;;;;6137352;23;20424;-77
2021/03/30 06:22:52;;;;;;;12.00;10.53;;;9.20;99.90;;;;;;6137039;23;20381;-77
2021/03/30 06:25:39;;;;;;;11.73;10.53;;;9.40;99.90;;;;;;6136822;23;20439;-77
2021/03/30 06:28:13;;;;;;;12.27;10.20;;;9.60;99.90;;;;;;6135440;23;20723;-77
2021/03/30 06:31:00;;;;;;;11.13;10.00;;;9.80;99.90;;;;;;6125212;23;20504;-77
2021/03/30 06:33:30;;;;;;;11.30;9.90;;;10.10;99.90;;;;;;6125589;23;20409;-77
2021/03/30 06:36:18;;;;;;;12.17;10.97;;;10.30;99.90;;;;;;6136958;23;20413;-77
2021/03/30 06:38:55;;;;;;;11.50;10.37;;;10.60;99.90;;;;;;6125233;23;20433;-77
2021/03/30 06:41:33;;;;;;;13.43;10.30;;;10.80;99.90;;;;;;6125631;23;20417;-77
2021/03/30 06:46:50;;;;;;;11.93;9.73;;;11.20;99.90;;;;;;6136684;23;20420;-77
2021/03/30 06:49:21;;;;;;;12.00;9.20;;;11.40;99.90;;;;;;6136958;23;20765;-77
2021/03/30 06:51:49;;;;;;;11.00;9.10;;;11.50;99.90;;;;;;6150348;23;20757;-77
2021/03/30 06:54:16;;;;;;;11.70;10.50;;;11.60;99.90;;;;;;6150518;23;20425;-77
2021/03/30 06:56:52;;;;;;;12.80;9.47;;;11.80;99.90;;;;;;6140117;23;20452;-77
2021/03/30 06:59:20;;;;;;;13.63;10.50;;;11.90;99.90;;;;;;6128859;23;20433;-78
2021/03/30 07:01:50;;;;;;;12.63;9.70;;;12.00;99.90;;;;;;6140036;23;20435;-78
2021/03/30 07:04:20;;;;;;;16.80;9.60;;;12.10;99.90;;;;;;6128904;23;20413;-78
2021/03/30 07:06:52;;;;;;;11.13;9.47;;;12.10;99.90;;;;;;6140365;23;20421;-78
2021/03/30 07:09:23;;;;;;;12.80;10.10;;;12.20;99.90;;;;;;6152957;23;20445;-77
2021/03/30 07:11:51;;;;;;;13.80;10.77;;;12.30;99.90;;;;;;6139936;23;20401;-77
2021/03/30 07:14:23;;;;;;;12.63;9.60;;;12.40;99.90;;;;;;6128606;23;20503;-78
2021/03/30 07:16:54;;;;;;;11.60;9.40;;;12.40;99.90;;;;;;6128246;23;20417;-78
2021/03/30 07:19:25;;;;;;;13.20;9.60;;;12.50;99.90;;;;;;6140010;23;20417;-78
2021/03/30 07:22:00;;;;;;;11.37;9.57;;;12.50;99.90;;;;;;6140431;23;20907;-78
2021/03/30 07:24:33;;;;;;;11.20;9.50;;;12.60;99.90;;;;;;6128861;23;20444;-78
2021/03/30 07:27:06;;;;;;;11.38;9.32;;;12.60;99.90;;;;;;6128148;23;20426;-78
2021/03/30 07:29:40;;;;;;;14.33;10.13;;;12.70;99.70;;;;;;6139917;23;20213;-78
2021/03/30 07:32:16;;;;;;;13.67;10.33;;;12.70;99.90;;;;;;6140837;23;20433;-78
2021/03/30 07:34:54;;;;;;;11.93;10.20;;;12.80;99.70;;;;;;6139900;23;20868;-78
2021/03/30 07:37:33;;;;;;;12.90;10.40;;;12.80;99.70;;;;;;6127315;23;20469;-78
2021/03/30 07:40:04;;;;;;;10.50;9.40;;;12.90;99.10;;;;;;6128428;23;20437;-78
2021/03/30 07:42:34;;;;;;;11.87;10.00;;;13.00;99.20;;;;;;6140339;23;20440;-78
2021/03/30 07:45:05;;;;;;;11.57;9.03;;;13.10;99.30;;;;;;6152962;23;20413;-78
2021/03/30 07:47:33;;;;;;;10.17;8.87;;;13.20;99.40;;;;;;6140170;23;20480;-78
2021/03/30 07:50:02;;;;;;;13.80;8.90;;;13.30;99.50;;;;;;6128716;23;20445;-77
2021/03/30 07:52:30;;;;;;;9.47;8.57;;;13.40;99.50;;;;;;6152940;23;20424;-78
2021/03/30 07:55:18;;;;;;;14.20;8.40;;;13.60;99.50;;;;;;6152826;23;20432;-78
2021/03/30 07:58:01;;;;;;;9.80;8.80;;;13.80;99.60;;;;;;6139564;23;20381;-78
2021/03/30 08:00:54;;;;;;;12.40;9.20;;;14.10;99.70;;;;;;6152788;23;20447;-78
2021/03/30 08:03:26;;;;;;;10.50;8.33;;;14.30;99.60;;;;;;6128327;23;20414;-78
2021/03/30 08:06:17;;;;;;;12.03;8.90;;;14.50;99.70;;;;;;6127271;23;20410;-78
2021/03/30 08:09:01;;;;;;;15.40;8.80;;;14.80;99.80;;;;;;6126354;23;20440;-78
2021/03/30 08:11:48;;;;;;;10.23;8.97;;;15.00;99.80;;;;;;6126463;23;20394;-78
2021/03/30 08:14:38;;;;;;;9.63;8.70;;;15.20;99.80;;;;;;6126506;23;20884;-78
2021/03/30 08:17:18;;;;;;;13.10;9.00;;;15.40;99.80;;;;;;6138860;23;20413;-78
2021/03/30 08:20:15;;;;;;;9.57;7.77;;;15.60;99.90;;;;;;6150873;23;20443;-78
2021/03/30 08:23:10;;;;;;;7.37;6.63;;;15.80;99.90;;;;;;6127212;23;20425;-78
2021/03/30 08:25:38;;;;;;;12.00;9.10;;;16.00;99.90;;;;;;6128283;23;20388;-78
2021/03/30 08:28:07;;;;;;;11.70;9.00;;;16.20;99.90;;;;;;6139784;23;20478;-78
2021/03/30 08:30:56;;;;;;;8.43;6.90;;;16.30;99.90;;;;;;6139828;23;20459;-78
2021/03/30 08:33:32;;;;;;;10.10;8.50;;;16.40;99.90;;;;;;6104989;23;20454;-78
2021/03/30 08:36:26;;;;;;;10.90;8.70;;;16.50;99.90;;;;;;6129531;23;20409;-78
2021/03/30 08:38:58;;;;;;;11.33;8.40;;;16.70;99.90;;;;;;6104898;23;20431;-78
2021/03/30 08:41:56;;;;;;;8.50;7.57;;;16.80;99.90;;;;;;6126726;23;20395;-78
2021/03/30 08:44:31;;;;;;;8.57;7.77;;;17.00;99.90;;;;;;6126805;23;20445;-78
2021/03/30 08:47:24;;;;;;;9.33;7.93;;;17.10;99.80;;;;;;6102482;23;20388;-78
2021/03/30 08:50:10;;;;;;;9.83;7.70;;;17.10;99.80;;;;;;6102131;23;20423;-78
2021/03/30 08:52:38;;;;;;;10.63;8.27;;;17.30;99.90;;;;;;6102503;23;20435;-78
2021/03/30 08:55:09;;;;;;;9.80;7.53;;;17.40;99.90;;;;;;6137870;23;20864;-78
2021/03/30 08:57:39;;;;;;;9.35;8.30;;;17.50;99.90;;;;;;6136771;23;20445;-78
2021/03/30 09:00:17;;;;;;;8.07;6.90;;;17.70;99.10;;;;;;6101914;23;20190;-78
2021/03/30 09:02:45;;;;;;;7.90;7.10;;;17.90;99.40;;;;;;6138209;23;20861;-79
2021/03/30 09:05:19;;;;;;;8.93;6.77;;;17.90;99.40;;;;;;6102154;23;20433;-79
2021/03/30 09:07:49;;;;;;;7.43;6.27;;;18.00;99.50;;;;;;6138619;23;20442;-79
2021/03/30 09:10:18;;;;;;;7.43;6.10;;;18.10;99.50;;;;;;6102660;23;20441;-79
2021/03/30 09:12:46;;;;;;;8.00;6.10;;;18.20;99.50;;;;;;6138383;23;20356;-78
2021/03/30 09:15:17;;;;;;;7.13;5.87;;;18.30;99.50;;;;;;6102651;23;20421;-78
2021/03/30 09:17:59;;;;;;;9.57;6.83;;;18.40;99.40;;;;;;6138213;23;20388;-78
2021/03/30 09:20:30;;;;;;;6.70;5.97;;;18.50;99.40;;;;;;6137592;23;20384;-78
2021/03/30 09:23:02;;;;;;;7.57;5.70;;;18.50;99.40;;;;;;6137361;23;20409;-78
2021/03/30 09:25:37;;;;;;;7.93;5.70;;;18.60;99.50;;;;;;6137281;23;20508;-78
2021/03/30 09:28:13;;;;;;;8.07;6.73;;;18.70;99.40;;;;;;6137708;23;20394;-78
2021/03/30 09:30:43;;;;;;;8.37;6.43;;;18.80;99.40;;;;;;6126051;23;20432;-78
2021/03/30 09:33:12;;;;;;;8.63;6.20;;;18.80;99.30;;;;;;6101483;23;20786;-78
2021/03/30 09:35:40;;;;;;;8.17;5.50;;;18.90;99.30;;;;;;6137515;23;20866;-78
2021/03/30 09:38:10;;;;;;;9.73;6.80;;;19.00;99.30;;;;;;6125749;23;20423;-78
2021/03/30 09:40:41;;;;;;;10.10;7.30;;;19.10;99.30;;;;;;6101394;23;20753;-78
2021/03/30 09:43:10;;;;;;;8.10;5.93;;;19.20;99.30;;;;;;6126051;23;20790;-78
2021/03/30 09:45:40;;;;;;;7.50;6.40;;;19.20;99.10;;;;;;6101190;23;20472;-78
2021/03/30 09:48:11;;;;;;;8.50;6.37;;;19.20;99.00;;;;;;6101236;23;20412;-78
2021/03/30 09:50:42;;;;;;;8.80;6.70;;;19.20;99.00;;;;;;6137133;23;20429;-78
2021/03/30 09:53:10;;;;;;;7.80;6.07;;;19.30;98.90;;;;;;6101278;23;20401;-78
2021/03/30 09:55:41;;;;;;;7.97;6.67;;;19.30;98.70;;;;;;6101047;23;20456;-78
2021/03/30 09:58:10;;;;;;;8.90;5.90;;;19.30;98.60;;;;;;6101514;23;20409;-78
2021/03/30 10:00:40;;;;;;;7.43;5.30;;;19.30;98.60;;;;;;6139459;23;20389;-78
2021/03/30 10:03:09;;;;;;;7.63;5.17;;;19.30;98.50;;;;;;6103792;23;20409;-78
2021/03/30 10:05:39;;;;;;;11.00;6.30;;;19.30;98.40;;;;;;6138921;23;20754;-78
2021/03/30 10:08:19;;;;;;;6.90;6.30;;;19.30;98.30;;;;;;6136966;23;20398;-78
2021/03/30 10:10:51;;;;;;;6.67;5.60;;;19.30;98.10;;;;;;6137038;23;20488;-78
2021/03/30 10:13:26;;;;;;;9.02;6.32;;;19.30;98.00;;;;;;6100766;23;20414;-78
2021/03/30 10:15:55;;;;;;;7.27;6.00;;;19.40;97.60;;;;;;6136782;23;20533;-78
2021/03/30 10:18:25;;;;;;;8.10;6.03;;;19.40;97.60;;;;;;6136669;23;20463;-78
2021/03/30 10:20:58;;;;;;;8.13;7.33;;;19.40;97.60;;;;;;6101004;23;20561;-78
2021/03/30 10:23:29;;;;;;;9.55;7.50;;;19.40;97.50;;;;;;6101055;23;20964;-78
2021/03/30 10:26:13;;;;;;;6.10;5.43;;;19.40;97.00;;;;;;6121962;23;20181;-78
2021/03/30 10:28:42;;;;;;;7.83;6.50;;;19.40;97.00;;;;;;6150072;23;20934;-78
2021/03/30 10:31:14;;;;;;;9.20;6.10;;;19.40;96.80;;;;;;6137537;23;20429;-78
2021/03/30 10:33:47;;;;;;;7.07;5.13;;;19.30;96.70;;;;;;6127688;23;20413;-78
2021/03/30 10:36:18;;;;;;;6.80;4.87;;;19.40;96.80;;;;;;6125390;23;20436;-78
2021/03/30 10:39:05;;;;;;;7.10;6.40;;;19.40;96.80;;;;;;6136807;23;20476;-78
2021/03/30 10:41:35;;;;;;;8.50;6.03;;;19.40;96.70;;;;;;6137476;23;20402;-78
2021/03/30 10:44:02;;;;;;;6.97;5.23;;;19.50;96.70;;;;;;6125294;23;20829;-78
2021/03/30 10:46:30;;;;;;;5.60;5.00;;;19.60;96.60;;;;;;6136446;23;20424;-78
2021/03/30 10:49:04;;;;;;;7.90;5.67;;;19.60;96.40;;;;;;6137025;23;20432;-78
2021/03/30 10:51:34;;;;;;;7.17;5.60;;;19.60;96.40;;;;;;6149826;23;20440;-78
2021/03/30 10:54:04;;;;;;;6.20;5.60;;;19.60;96.20;;;;;;6125315;23;20893;-78
2021/03/30 10:56:34;;;;;;;7.30;5.63;;;19.60;96.20;;;;;;6125165;23;20734;-78
2021/03/30 10:59:08;;;;;;;7.17;5.90;;;19.60;96.00;;;;;;6149660;23;20528;-78
2021/03/30 11:01:36;;;;;;;5.60;4.87;;;19.60;95.80;;;;;;6125048;23;20528;-78
2021/03/30 11:04:05;;;;;;;7.10;6.37;;;19.60;95.50;;;;;;6136496;23;20821;-78
2021/03/30 11:06:32;;;;;;;10.37;5.53;;;19.60;95.30;;;;;;6149904;23;20421;-78
2021/03/30 11:08:59;;;;;;;6.40;5.37;;;19.60;95.10;;;;;;6136291;23;20453;-78
2021/03/30 11:11:27;;;;;;;8.60;5.67;;;19.70;94.90;;;;;;6136530;23;20436;-78
2021/03/30 11:13:56;;;;;;;9.67;6.93;;;19.70;94.70;;;;;;6136563;23;20404;-78
2021/03/30 11:16:24;;;;;;;8.50;6.90;;;19.70;94.30;;;;;;6125438;23;20425;-78
2021/03/30 11:18:52;;;;;;;8.93;7.10;;;19.70;94.40;;;;;;6149950;23;20940;-78
2021/03/30 11:21:21;;;;;;;8.30;5.90;;;19.70;94.40;;;;;;6150098;23;20476;-78
2021/03/30 11:23:55;;;;;;;7.53;6.22;;;19.80;94.50;;;;;;6133851;23;20413;-78
2021/03/30 11:26:23;;;;;;;6.53;5.43;;;19.80;93.90;;;;;;6136280;23;20174;-78
2021/03/30 11:28:50;;;;;;;7.60;5.73;;;19.90;93.50;;;;;;6136322;23;20421;-78
2021/03/30 11:31:31;;;;;;;7.40;5.87;;;19.90;93.60;;;;;;6136474;23;20429;-78
2021/03/30 11:34:06;;;;;;;7.50;5.97;;;19.90;93.30;;;;;;6137355;23;20438;-78
2021/03/30 11:36:39;;;;;;;9.47;6.53;;;19.90;93.00;;;;;;6137130;23;20158;-78
2021/03/30 11:39:07;;;;;;;8.93;6.93;;;19.90;92.80;;;;;;6136428;23;20444;-78
2021/03/30 11:41:34;;;;;;;7.97;6.33;;;20.00;92.70;;;;;;6101187;23;20468;-78
2021/03/30 11:44:03;;;;;;;8.60;6.37;;;20.00;92.60;;;;;;6138597;23;20781;-78
2021/03/30 11:46:31;;;;;;;8.67;7.47;;;20.00;92.50;;;;;;6104441;23;20448;-79
2021/03/30 11:49:05;;;;;;;8.40;6.23;;;20.00;92.50;;;;;;6105430;23;20539;-79
2021/03/30 11:51:32;;;;;;;6.80;5.63;;;20.10;92.10;;;;;;6140244;23;20417;-79
2021/03/30 11:54:00;;;;;;;11.63;6.17;;;20.10;91.70;;;;;;6104494;23;20459;-79
2021/03/30 11:56:28;;;;;;;9.70;7.10;;;20.10;91.60;;;;;;6104000;23;20468;-79
2021/03/30 11:58:55;;;;;;;15.30;7.93;;;20.10;91.50;;;;;;6104068;23;20457;-79
2021/03/30 12:01:23;;;;;;;10.13;6.87;;;20.10;91.30;;;;;;6128778;23;20405;-79
2021/03/30 12:03:52;;;;;;;7.83;6.73;;;20.10;91.30;;;;;;6103802;23;20416;-79
2021/03/30 12:06:19;;;;;;;7.67;6.37;;;20.10;91.20;;;;;;6127205;23;20457;-79
2021/03/30 12:08:46;;;;;;;10.47;7.73;;;20.20;90.80;;;;;;6138311;23;20416;-78
2021/03/30 12:11:13;;;;;;;8.47;6.30;;;20.20;90.60;;;;;;6102123;23;20468;-78
2021/03/30 12:13:41;;;;;;;10.27;6.50;;;20.20;90.50;;;;;;6102110;23;20417;-78
2021/03/30 12:16:09;;;;;;;7.53;6.30;;;20.30;90.60;;;;;;6137729;23;20470;-78
2021/03/30 12:18:37;;;;;;;11.30;6.70;;;20.30;90.50;;;;;;6137778;23;20558;-78
2021/03/30 12:21:06;;;;;;;8.07;6.60;;;20.30;90.30;;;;;;6137906;23;20398;-78
2021/03/30 12:23:33;;;;;;;9.43;6.50;;;20.40;90.50;;;;;;6101889;23;20413;-78
2021/03/30 12:26:00;;;;;;;11.40;7.13;;;20.40;90.00;;;;;;6146013;23;20940;-78
2021/03/30 12:28:28;;;;;;;10.07;6.90;;;20.50;89.40;;;;;;6137825;23;20417;-78
2021/03/30 12:30:56;;;;;;;9.87;7.60;;;20.50;89.20;;;;;;6137745;23;20965;-78
2021/03/30 12:33:25;;;;;;;10.48;7.10;;;20.50;88.80;;;;;;6136701;23;20438;-78
2021/03/30 12:35:53;;;;;;;7.83;6.80;;;20.60;84.50;;;;;;6126293;23;20229;-78
2021/03/30 12:38:24;;;;;;;11.33;7.60;;;20.70;85.30;;;;;;6126364;23;20999;-78
2021/03/30 12:40:52;;;;;;;9.47;7.53;;;20.60;85.60;;;;;;6150992;23;20405;-78
2021/03/30 12:43:20;;;;;;;9.75;7.65;;;20.70;85.30;;;;;;6125325;23;20422;-78
2021/03/30 12:45:48;;;;;;;8.80;7.87;;;20.70;83.10;;;;;;6126082;23;20180;-78
2021/03/30 12:48:16;;;;;;;15.60;7.70;;;20.80;82.80;;;;;;6150617;23;20448;-78
2021/03/30 12:50:44;;;;;;;11.73;8.53;;;20.80;83.70;;;;;;6125895;23;20441;-78
2021/03/30 12:53:11;;;;;;;9.17;7.27;;;20.80;83.00;;;;;;6125868;23;20513;-78
2021/03/30 12:55:39;;;;;;;10.13;8.40;;;20.80;82.50;;;;;;6126136;23;20468;-78
2021/03/30 12:58:07;;;;;;;9.03;7.50;;;20.80;82.00;;;;;;6137868;23;20397;-77
2021/03/30 13:00:35;;;;;;;9.27;7.10;;;20.80;81.80;;;;;;6150511;23;20471;-77
2021/03/30 13:03:20;;;;;;;9.80;7.17;;;20.90;82.10;;;;;;6137822;23;20378;-77
2021/03/30 13:05:50;;;;;;;12.70;8.50;;;20.90;82.30;;;;;;6137909;23;20390;-77